createdAt,value
2022-08-08T00:07:54.177Z,20.18
2022-08-08T00:18:56.378Z,20.23
2022-08-08T00:29:52.290Z,20.09
2022-08-08T00:41:10.465Z,19.93
2022-08-08T00:51:59.238Z,19.76
2022-08-08T01:03:59.988Z,19.79
2022-08-08T01:14:06.738Z,19.78
2022-08-08T01:25:16.787Z,19.82
2022-08-08T01:36:16.469Z,19.64
2022-08-08T01:47:59.064Z,18.82
2022-08-08T01:58:17.478Z,18.27
2022-08-08T02:09:18.075Z,18.19
2022-08-08T02:21:00.822Z,18.32
2022-08-08T02:31:02.018Z,18.19
2022-08-08T02:42:03.566Z,18.09
2022-08-08T02:52:50.660Z,18.16
2022-08-08T03:05:04.669Z,18.11
2022-08-08T03:15:57.619Z,18.27
2022-08-08T03:26:02.660Z,18.35
2022-08-08T03:37:10.869Z,18.24
2022-08-08T03:48:21.197Z,18.32
2022-08-08T03:59:22.542Z,18.50
2022-08-08T04:10:24.851Z,18.57
2022-08-08T04:21:27.056Z,18.55
2022-08-08T04:32:30.644Z,18.59
2022-08-08T04:43:31.829Z,18.68
2022-08-08T04:54:40.006Z,18.71
2022-08-08T05:05:45.131Z,19.01
2022-08-08T05:16:52.343Z,19.06
2022-08-08T05:27:41.163Z,19.20
2022-08-08T05:38:41.296Z,19.31
2022-08-08T05:49:53.949Z,19.53
2022-08-08T06:00:57.076Z,19.57
2022-08-08T06:11:55.216Z,19.93
2022-08-08T06:22:51.187Z,20.46
2022-08-08T06:34:26.676Z,20.72
2022-08-08T06:44:57.737Z,20.79
2022-08-08T06:56:02.658Z,21.12
2022-08-08T07:06:51.374Z,20.87
2022-08-08T07:18:00.770Z,21.01
2022-08-08T07:28:42.441Z,21.54
2022-08-08T07:39:55.938Z,21.56
2022-08-08T07:50:38.881Z,21.86
2022-08-08T08:02:33.682Z,22.08
2022-08-08T08:12:38.583Z,22.07
2022-08-08T08:23:41.052Z,22.75
2022-08-08T08:34:14.345Z,22.78
2022-08-08T08:45:22.992Z,22.90
2022-08-08T08:56:15.092Z,23.14
2022-08-08T09:07:19.725Z,23.02
2022-08-08T09:18:13.132Z,23.05
2022-08-08T09:29:09.538Z,23.02
2022-08-08T09:40:02.508Z,23.86
2022-08-08T09:51:05.138Z,23.98
2022-08-08T10:02:12.697Z,24.23
2022-08-08T10:13:14.779Z,24.10
2022-08-08T10:24:28.345Z,24.50
2022-08-08T10:34:48.911Z,24.78
2022-08-08T10:45:56.355Z,24.69
2022-08-08T10:56:36.904Z,24.47
2022-08-08T11:08:30.300Z,24.47
2022-08-08T11:18:40.279Z,24.69
2022-08-08T11:29:51.466Z,24.50
2022-08-08T11:40:27.951Z,24.48
2022-08-08T11:51:30.145Z,24.75
2022-08-08T12:02:33.475Z,24.69
2022-08-08T12:13:33.565Z,24.66
2022-08-08T12:24:16.602Z,24.22
2022-08-08T12:35:17.908Z,24.62
2022-08-08T12:46:19.190Z,24.69
2022-08-08T12:57:11.894Z,24.53
2022-08-08T13:08:10.805Z,24.27
2022-08-08T13:19:12.297Z,24.34
2022-08-08T13:30:09.213Z,24.62
2022-08-08T13:41:16.014Z,24.59
2022-08-08T13:52:36.047Z,24.88
2022-08-08T14:03:52.529Z,24.75
2022-08-08T14:14:20.979Z,23.86
2022-08-08T14:25:22.715Z,23.63
2022-08-08T14:36:19.963Z,23.93
2022-08-08T14:47:21.733Z,23.82
2022-08-08T14:58:21.862Z,23.78
2022-08-08T15:09:27.172Z,23.90
2022-08-08T15:20:28.629Z,23.98
2022-08-08T15:31:55.711Z,23.70
2022-08-08T15:42:31.788Z,23.50
2022-08-08T15:53:24.262Z,23.34
2022-08-08T16:04:29.549Z,23.12
2022-08-08T16:15:32.571Z,23.00
2022-08-08T16:26:34.273Z,22.93
2022-08-08T16:37:31.455Z,22.75
2022-08-08T16:48:32.126Z,22.71
2022-08-08T16:59:50.945Z,22.86
2022-08-08T17:10:34.328Z,22.68
2022-08-08T17:21:31.516Z,22.22
2022-08-08T17:32:34.315Z,22.02
2022-08-08T17:44:00.849Z,21.53
2022-08-08T17:54:39.669Z,21.26
2022-08-08T18:05:49.771Z,21.02
2022-08-08T18:16:37.023Z,20.82
2022-08-08T18:27:17.284Z,20.59
2022-08-08T18:38:16.641Z,20.18
2022-08-08T18:49:14.255Z,20.46
2022-08-08T19:00:14.122Z,20.51
2022-08-08T19:11:13.672Z,20.62
2022-08-08T19:22:09.069Z,20.42
2022-08-08T19:33:02.026Z,20.53
2022-08-08T19:44:03.356Z,20.69
2022-08-08T19:55:01.661Z,20.82
2022-08-08T20:06:15.281Z,20.75
2022-08-08T20:17:04.063Z,20.59
2022-08-08T20:28:06.942Z,20.30
2022-08-08T20:39:07.542Z,20.33
2022-08-08T20:50:10.172Z,19.90
2022-08-08T21:01:19.407Z,19.68
2022-08-08T21:12:15.684Z,19.53
2022-08-08T21:23:18.276Z,19.53
2022-08-08T21:34:18.770Z,19.50
2022-08-08T21:45:44.069Z,19.43
2022-08-08T21:56:32.285Z,19.17
2022-08-08T22:07:26.163Z,18.83
2022-08-08T22:18:26.180Z,18.58
2022-08-08T22:29:58.759Z,18.37
2022-08-08T22:40:31.857Z,18.10
2022-08-08T22:51:34.769Z,17.87
2022-08-08T23:02:35.639Z,17.73
2022-08-08T23:13:41.877Z,18.00
2022-08-08T23:24:42.149Z,17.92
2022-08-08T23:36:07.352Z,17.76
2022-08-08T23:49:03.734Z,17.70
2022-08-08T23:57:53.220Z,17.35
